sensor_id;sensor_type;location;lat;lon;timestamp;pressure;altitude;pressure_sealevel;temperature;humidity
73205;BME280;61413;-27.702;153.216;2024-03-08T00:01:06;102079.04;;;27.28;32.74
73205;BME280;61413;-27.702;153.216;2024-03-08T00:03:32;102080.81;;;27.60;33.14
73205;BME280;61413;-27.702;153.216;2024-03-08T00:05:59;102077.42;;;27.51;33.13
73205;BME280;61413;-27.702;153.216;2024-03-08T00:08:26;102079.52;;;27.85;32.40
73205;BME280;61413;-27.702;153.216;2024-03-08T00:10:52;102070.74;;;27.88;32.44
73205;BME280;61413;-27.702;153.216;2024-03-08T00:13:19;102074.49;;;27.81;32.72
73205;BME280;61413;-27.702;153.216;2024-03-08T00:15:45;102076.88;;;27.91;32.79
73205;BME280;61413;-27.702;153.216;2024-03-08T00:18:12;102076.90;;;28.24;32.39
73205;BME280;61413;-27.702;153.216;2024-03-08T00:20:39;102091.29;;;28.16;32.50
73205;BME280;61413;-27.702;153.216;2024-03-08T00:23:06;102076.76;;;27.66;32.00
73205;BME280;61413;-27.702;153.216;2024-03-08T00:25:32;102066.24;;;27.84;32.15
73205;BME280;61413;-27.702;153.216;2024-03-08T00:27:59;102070.70;;;28.25;32.71
73205;BME280;61413;-27.702;153.216;2024-03-08T00:30:25;102070.79;;;27.90;32.14
73205;BME280;61413;-27.702;153.216;2024-03-08T00:32:52;102070.99;;;27.73;32.07
73205;BME280;61413;-27.702;153.216;2024-03-08T00:35:18;102073.67;;;28.27;31.42
73205;BME280;61413;-27.702;153.216;2024-03-08T00:37:45;102061.56;;;27.73;31.44
73205;BME280;61413;-27.702;153.216;2024-03-08T00:40:12;102058.22;;;27.86;31.55
73205;BME280;61413;-27.702;153.216;2024-03-08T00:42:38;102048.20;;;27.89;32.12
73205;BME280;61413;-27.702;153.216;2024-03-08T00:45:06;102064.29;;;27.91;31.74
73205;BME280;61413;-27.702;153.216;2024-03-08T00:47:33;102062.90;;;27.84;31.33
73205;BME280;61413;-27.702;153.216;2024-03-08T00:49:59;102053.01;;;28.06;30.80
73205;BME280;61413;-27.702;153.216;2024-03-08T00:52:26;102058.92;;;27.94;31.33
73205;BME280;61413;-27.702;153.216;2024-03-08T00:54:52;102046.55;;;28.27;31.39
73205;BME280;61413;-27.702;153.216;2024-03-08T00:57:19;102058.58;;;27.84;31.53
73205;BME280;61413;-27.702;153.216;2024-03-08T00:59:46;102055.82;;;28.11;31.60
73205;BME280;61413;-27.702;153.216;2024-03-08T01:02:12;102058.87;;;27.96;31.79
73205;BME280;61413;-27.702;153.216;2024-03-08T01:04:39;102052.40;;;27.50;32.71
73205;BME280;61413;-27.702;153.216;2024-03-08T01:07:06;102049.78;;;27.45;33.56
73205;BME280;61413;-27.702;153.216;2024-03-08T01:12:12;102045.35;;;28.78;33.35
73205;BME280;61413;-27.702;153.216;2024-03-08T01:14:38;102034.47;;;28.49;31.46
73205;BME280;61413;-27.702;153.216;2024-03-08T01:17:05;102028.99;;;28.47;30.85
73205;BME280;61413;-27.702;153.216;2024-03-08T01:19:32;102030.27;;;28.62;31.15
73205;BME280;61413;-27.702;153.216;2024-03-08T01:21:59;102027.23;;;28.26;31.51
73205;BME280;61413;-27.702;153.216;2024-03-08T01:24:25;102021.90;;;28.79;30.95
73205;BME280;61413;-27.702;153.216;2024-03-08T01:26:52;102016.85;;;29.43;30.49
73205;BME280;61413;-27.702;153.216;2024-03-08T01:29:19;102022.92;;;28.81;29.85
73205;BME280;61413;-27.702;153.216;2024-03-08T01:31:46;102018.47;;;28.68;29.67
73205;BME280;61413;-27.702;153.216;2024-03-08T01:34:12;102018.23;;;28.89;29.90
73205;BME280;61413;-27.702;153.216;2024-03-08T01:36:39;102023.10;;;28.63;29.97
73205;BME280;61413;-27.702;153.216;2024-03-08T01:39:06;102014.04;;;28.24;30.59
73205;BME280;61413;-27.702;153.216;2024-03-08T01:41:33;102015.91;;;28.14;30.72
73205;BME280;61413;-27.702;153.216;2024-03-08T01:44:00;102010.83;;;28.12;30.93
73205;BME280;61413;-27.702;153.216;2024-03-08T01:46:26;102003.52;;;28.45;30.34
73205;BME280;61413;-27.702;153.216;2024-03-08T01:48:53;102008.48;;;28.09;29.36
73205;BME280;61413;-27.702;153.216;2024-03-08T01:51:20;102012.80;;;28.18;28.61
73205;BME280;61413;-27.702;153.216;2024-03-08T01:53:48;102013.89;;;27.88;29.11
73205;BME280;61413;-27.702;153.216;2024-03-08T01:56:15;102003.44;;;28.01;29.83
73205;BME280;61413;-27.702;153.216;2024-03-08T01:58:43;102003.47;;;28.08;30.39
73205;BME280;61413;-27.702;153.216;2024-03-08T02:01:12;101998.32;;;27.72;31.17
73205;BME280;61413;-27.702;153.216;2024-03-08T02:03:35;101999.13;;;27.50;31.69
73205;BME280;61413;-27.702;153.216;2024-03-08T02:06:02;101997.02;;;27.54;32.13
73205;BME280;61413;-27.702;153.216;2024-03-08T02:10:50;102000.13;;;28.14;32.35
73205;BME280;61413;-27.702;153.216;2024-03-08T02:13:17;101990.62;;;28.25;31.25
73205;BME280;61413;-27.702;153.216;2024-03-08T02:16:00;101992.38;;;28.22;30.47
73205;BME280;61413;-27.702;153.216;2024-03-08T02:18:11;101977.93;;;28.37;30.56
73205;BME280;61413;-27.702;153.216;2024-03-08T02:20:37;101985.89;;;28.71;30.97
73205;BME280;61413;-27.702;153.216;2024-03-08T02:23:04;101988.86;;;29.20;30.89
73205;BME280;61413;-27.702;153.216;2024-03-08T02:27:31;101991.94;;;29.02;29.80
73205;BME280;61413;-27.702;153.216;2024-03-08T02:29:58;101991.17;;;28.76;30.19
73205;BME280;61413;-27.702;153.216;2024-03-08T02:32:25;101982.59;;;28.70;29.61
73205;BME280;61413;-27.702;153.216;2024-03-08T02:34:55;101980.25;;;28.50;29.26
73205;BME280;61413;-27.702;153.216;2024-03-08T02:37:18;101986.30;;;28.54;29.45
73205;BME280;61413;-27.702;153.216;2024-03-08T02:41:01;101972.80;;;28.31;29.65
73205;BME280;61413;-27.702;153.216;2024-03-08T02:43:29;101960.87;;;28.26;30.16
73205;BME280;61413;-27.702;153.216;2024-03-08T02:45:56;101954.07;;;28.82;29.98
73205;BME280;61413;-27.702;153.216;2024-03-08T02:48:22;101959.33;;;29.27;29.69
73205;BME280;61413;-27.702;153.216;2024-03-08T02:50:49;101951.95;;;28.95;29.56
73205;BME280;61413;-27.702;153.216;2024-03-08T02:53:17;101960.82;;;29.39;28.79
73205;BME280;61413;-27.702;153.216;2024-03-08T02:55:44;101959.06;;;29.20;28.52
73205;BME280;61413;-27.702;153.216;2024-03-08T02:58:10;101949.87;;;29.11;28.41
73205;BME280;61413;-27.702;153.216;2024-03-08T03:00:38;101945.01;;;28.74;28.93
73205;BME280;61413;-27.702;153.216;2024-03-08T03:03:05;101943.19;;;29.04;29.32
73205;BME280;61413;-27.702;153.216;2024-03-08T03:05:31;101961.79;;;28.99;29.59
73205;BME280;61413;-27.702;153.216;2024-03-08T03:07:58;101951.83;;;29.08;28.49
73205;BME280;61413;-27.702;153.216;2024-03-08T03:10:25;101951.50;;;29.04;28.93
73205;BME280;61413;-27.702;153.216;2024-03-08T03:12:52;101954.32;;;29.23;29.25
73205;BME280;61413;-27.702;153.216;2024-03-08T03:15:19;101948.84;;;29.11;29.32
73205;BME280;61413;-27.702;153.216;2024-03-08T03:18:36;101959.51;;;28.93;29.80
73205;BME280;61413;-27.702;153.216;2024-03-08T03:21:04;101957.88;;;28.95;29.83
73205;BME280;61413;-27.702;153.216;2024-03-08T03:23:31;101960.56;;;28.87;30.09
73205;BME280;61413;-27.702;153.216;2024-03-08T03:25:58;101946.22;;;29.06;29.92
73205;BME280;61413;-27.702;153.216;2024-03-08T03:28:25;101946.70;;;29.04;30.06
73205;BME280;61413;-27.702;153.216;2024-03-08T03:32:05;101943.37;;;29.49;29.46
73205;BME280;61413;-27.702;153.216;2024-03-08T03:34:32;101949.00;;;28.95;29.43
73205;BME280;61413;-27.702;153.216;2024-03-08T03:36:59;101933.21;;;29.06;29.27
73205;BME280;61413;-27.702;153.216;2024-03-08T03:39:27;101940.65;;;28.85;29.51
73205;BME280;61413;-27.702;153.216;2024-03-08T03:41:54;101935.94;;;28.54;29.91
73205;BME280;61413;-27.702;153.216;2024-03-08T03:44:21;101927.10;;;28.12;30.42
73205;BME280;61413;-27.702;153.216;2024-03-08T03:46:48;101924.86;;;28.33;30.88
73205;BME280;61413;-27.702;153.216;2024-03-08T03:49:15;101923.24;;;28.07;31.28
73205;BME280;61413;-27.702;153.216;2024-03-08T03:51:42;101932.56;;;27.71;31.79
73205;BME280;61413;-27.702;153.216;2024-03-08T03:54:10;101927.09;;;28.11;31.93
73205;BME280;61413;-27.702;153.216;2024-03-08T03:56:37;101932.72;;;28.16;31.89
73205;BME280;61413;-27.702;153.216;2024-03-08T03:59:04;101934.80;;;28.00;31.57
73205;BME280;61413;-27.702;153.216;2024-03-08T04:01:31;101923.85;;;28.16;30.99
73205;BME280;61413;-27.702;153.216;2024-03-08T04:03:58;101912.71;;;28.47;31.50
73205;BME280;61413;-27.702;153.216;2024-03-08T04:06:25;101923.89;;;28.39;31.49
73205;BME280;61413;-27.702;153.216;2024-03-08T04:08:52;101917.38;;;28.61;31.69
73205;BME280;61413;-27.702;153.216;2024-03-08T04:11:19;101916.34;;;28.08;32.04
73205;BME280;61413;-27.702;153.216;2024-03-08T04:13:46;101918.36;;;28.03;32.29
73205;BME280;61413;-27.702;153.216;2024-03-08T04:16:13;101912.32;;;27.94;32.63
73205;BME280;61413;-27.702;153.216;2024-03-08T04:18:39;101909.04;;;27.57;33.54
73205;BME280;61413;-27.702;153.216;2024-03-08T04:21:07;101914.87;;;27.83;34.12
73205;BME280;61413;-27.702;153.216;2024-03-08T04:23:33;101918.05;;;27.51;34.63
73205;BME280;61413;-27.702;153.216;2024-03-08T04:26:00;101913.74;;;27.14;34.52
73205;BME280;61413;-27.702;153.216;2024-03-08T04:28:27;101919.74;;;27.52;34.48
73205;BME280;61413;-27.702;153.216;2024-03-08T04:30:54;101920.27;;;26.84;34.71
73205;BME280;61413;-27.702;153.216;2024-03-08T04:33:21;101912.96;;;26.86;35.06
73205;BME280;61413;-27.702;153.216;2024-03-08T04:35:48;101916.37;;;27.13;35.11
73205;BME280;61413;-27.702;153.216;2024-03-08T04:38:15;101907.71;;;26.78;34.99
73205;BME280;61413;-27.702;153.216;2024-03-08T04:40:42;101906.77;;;27.12;34.92
73205;BME280;61413;-27.702;153.216;2024-03-08T04:43:09;101913.68;;;27.21;34.78
73205;BME280;61413;-27.702;153.216;2024-03-08T04:45:36;101916.40;;;27.15;34.60
73205;BME280;61413;-27.702;153.216;2024-03-08T04:48:03;101899.60;;;27.63;34.16
73205;BME280;61413;-27.702;153.216;2024-03-08T04:50:30;101900.81;;;27.52;33.73
73205;BME280;61413;-27.702;153.216;2024-03-08T04:52:57;101899.62;;;27.48;33.88
73205;BME280;61413;-27.702;153.216;2024-03-08T04:59:16;101896.76;;;27.64;33.74
73205;BME280;61413;-27.702;153.216;2024-03-08T05:01:43;101889.63;;;27.82;33.76
73205;BME280;61413;-27.702;153.216;2024-03-08T05:04:10;101887.92;;;27.46;33.42
73205;BME280;61413;-27.702;153.216;2024-03-08T05:06:37;101888.97;;;27.34;33.25
73205;BME280;61413;-27.702;153.216;2024-03-08T05:09:04;101903.23;;;27.25;33.03
73205;BME280;61413;-27.702;153.216;2024-03-08T05:11:31;101898.84;;;26.90;33.09
73205;BME280;61413;-27.702;153.216;2024-03-08T05:13:58;101889.68;;;27.23;33.42
73205;BME280;61413;-27.702;153.216;2024-03-08T05:16:25;101893.50;;;27.01;32.81
73205;BME280;61413;-27.702;153.216;2024-03-08T05:18:52;101887.67;;;27.11;32.22
73205;BME280;61413;-27.702;153.216;2024-03-08T05:21:19;101889.73;;;27.73;32.43
73205;BME280;61413;-27.702;153.216;2024-03-08T05:23:46;101883.64;;;27.30;33.27
73205;BME280;61413;-27.702;153.216;2024-03-08T05:26:13;101881.84;;;27.31;33.66
73205;BME280;61413;-27.702;153.216;2024-03-08T05:28:40;101883.65;;;27.30;33.63
73205;BME280;61413;-27.702;153.216;2024-03-08T05:31:08;101890.36;;;27.38;32.59
73205;BME280;61413;-27.702;153.216;2024-03-08T05:33:35;101881.17;;;27.59;32.70
73205;BME280;61413;-27.702;153.216;2024-03-08T05:36:03;101881.63;;;27.67;33.01
73205;BME280;61413;-27.702;153.216;2024-03-08T05:38:32;101881.36;;;28.05;32.08
73205;BME280;61413;-27.702;153.216;2024-03-08T05:40:55;101877.73;;;27.04;32.79
73205;BME280;61413;-27.702;153.216;2024-03-08T05:43:22;101882.57;;;27.23;33.16
73205;BME280;61413;-27.702;153.216;2024-03-08T05:45:51;101880.69;;;26.72;33.71
73205;BME280;61413;-27.702;153.216;2024-03-08T05:48:18;101879.25;;;26.96;33.98
73205;BME280;61413;-27.702;153.216;2024-03-08T05:50:52;101883.49;;;26.52;34.09
73205;BME280;61413;-27.702;153.216;2024-03-08T05:53:10;101884.89;;;26.81;34.25
73205;BME280;61413;-27.702;153.216;2024-03-08T05:55:38;101889.02;;;27.13;34.15
73205;BME280;61413;-27.702;153.216;2024-03-08T05:58:05;101880.35;;;27.62;33.88
73205;BME280;61413;-27.702;153.216;2024-03-08T06:00:32;101878.87;;;27.42;33.84
73205;BME280;61413;-27.702;153.216;2024-03-08T06:02:59;101883.77;;;27.64;33.52
73205;BME280;61413;-27.702;153.216;2024-03-08T06:05:26;101892.66;;;26.89;33.89
73205;BME280;61413;-27.702;153.216;2024-03-08T06:07:53;101885.97;;;26.99;34.05
73205;BME280;61413;-27.702;153.216;2024-03-08T06:11:23;101895.70;;;27.05;34.24
73205;BME280;61413;-27.702;153.216;2024-03-08T06:13:50;101895.25;;;26.75;34.11
73205;BME280;61413;-27.702;153.216;2024-03-08T06:16:17;101890.96;;;26.64;34.32
73205;BME280;61413;-27.702;153.216;2024-03-08T06:18:44;101898.33;;;26.94;34.58
73205;BME280;61413;-27.702;153.216;2024-03-08T06:21:11;101895.72;;;26.58;34.94
73205;BME280;61413;-27.702;153.216;2024-03-08T06:23:38;101902.53;;;26.44;35.37
73205;BME280;61413;-27.702;153.216;2024-03-08T06:26:05;101907.05;;;26.43;35.59
73205;BME280;61413;-27.702;153.216;2024-03-08T06:28:32;101907.74;;;26.53;35.76
73205;BME280;61413;-27.702;153.216;2024-03-08T06:30:59;101918.17;;;26.36;35.94
73205;BME280;61413;-27.702;153.216;2024-03-08T06:33:27;101905.62;;;26.36;35.84
73205;BME280;61413;-27.702;153.216;2024-03-08T06:35:54;101906.45;;;26.33;35.79
73205;BME280;61413;-27.702;153.216;2024-03-08T06:38:22;101914.74;;;26.79;35.54
73205;BME280;61413;-27.702;153.216;2024-03-08T06:40:49;101900.78;;;26.66;35.62
73205;BME280;61413;-27.702;153.216;2024-03-08T06:43:16;101918.98;;;26.49;36.05
73205;BME280;61413;-27.702;153.216;2024-03-08T06:45:43;101900.09;;;26.91;35.95
73205;BME280;61413;-27.702;153.216;2024-03-08T06:48:10;101903.55;;;26.75;36.03
73205;BME280;61413;-27.702;153.216;2024-03-08T06:50:37;101910.12;;;26.28;36.08
73205;BME280;61413;-27.702;153.216;2024-03-08T06:53:04;101903.18;;;26.40;36.38
73205;BME280;61413;-27.702;153.216;2024-03-08T06:55:31;101908.58;;;26.23;36.09
73205;BME280;61413;-27.702;153.216;2024-03-08T06:57:58;101907.80;;;25.90;36.35
73205;BME280;61413;-27.702;153.216;2024-03-08T07:00:25;101911.11;;;25.85;36.43
73205;BME280;61413;-27.702;153.216;2024-03-08T07:02:52;101907.34;;;25.98;36.59
73205;BME280;61413;-27.702;153.216;2024-03-08T07:05:19;101911.35;;;25.88;36.75
73205;BME280;61413;-27.702;153.216;2024-03-08T07:07:46;101903.72;;;25.78;36.68
73205;BME280;61413;-27.702;153.216;2024-03-08T07:10:13;101912.25;;;25.61;36.19
73205;BME280;61413;-27.702;153.216;2024-03-08T07:12:40;101912.36;;;25.39;36.54
73205;BME280;61413;-27.702;153.216;2024-03-08T07:15:08;101917.15;;;25.31;36.58
73205;BME280;61413;-27.702;153.216;2024-03-08T07:17:35;101916.36;;;25.70;36.71
73205;BME280;61413;-27.702;153.216;2024-03-08T07:20:02;101917.82;;;25.18;36.80
73205;BME280;61413;-27.702;153.216;2024-03-08T07:22:29;101928.24;;;25.46;36.69
73205;BME280;61413;-27.702;153.216;2024-03-08T07:24:56;101927.57;;;25.22;36.69
73205;BME280;61413;-27.702;153.216;2024-03-08T07:27:23;101932.18;;;25.38;36.54
73205;BME280;61413;-27.702;153.216;2024-03-08T07:29:50;101940.14;;;25.79;36.32
73205;BME280;61413;-27.702;153.216;2024-03-08T07:32:17;101940.16;;;25.50;36.19
73205;BME280;61413;-27.702;153.216;2024-03-08T07:34:43;101937.48;;;25.55;36.06
73205;BME280;61413;-27.702;153.216;2024-03-08T07:37:10;101944.34;;;25.81;35.92
73205;BME280;61413;-27.702;153.216;2024-03-08T07:39:37;101945.03;;;25.77;36.09
73205;BME280;61413;-27.702;153.216;2024-03-08T07:42:05;101946.11;;;25.66;36.30
73205;BME280;61413;-27.702;153.216;2024-03-08T07:44:32;101946.66;;;25.38;36.63
73205;BME280;61413;-27.702;153.216;2024-03-08T07:46:58;101951.25;;;25.29;36.80
73205;BME280;61413;-27.702;153.216;2024-03-08T07:49:26;101945.59;;;25.19;37.03
73205;BME280;61413;-27.702;153.216;2024-03-08T07:51:52;101947.41;;;25.19;37.05
73205;BME280;61413;-27.702;153.216;2024-03-08T07:54:19;101951.56;;;25.03;37.26
73205;BME280;61413;-27.702;153.216;2024-03-08T07:56:47;101957.42;;;24.95;37.50
73205;BME280;61413;-27.702;153.216;2024-03-08T07:59:13;101955.12;;;25.06;37.86
73205;BME280;61413;-27.702;153.216;2024-03-08T08:04:21;101963.82;;;24.95;39.06
73205;BME280;61413;-27.702;153.216;2024-03-08T08:06:48;101974.58;;;24.64;39.25
73205;BME280;61413;-27.702;153.216;2024-03-08T08:09:15;101974.39;;;24.77;39.35
73205;BME280;61413;-27.702;153.216;2024-03-08T08:11:42;101971.04;;;24.74;39.27
73205;BME280;61413;-27.702;153.216;2024-03-08T08:14:09;101976.10;;;24.69;39.34
73205;BME280;61413;-27.702;153.216;2024-03-08T08:16:36;101974.75;;;24.66;39.29
73205;BME280;61413;-27.702;153.216;2024-03-08T08:19:03;101979.02;;;24.76;39.38
73205;BME280;61413;-27.702;153.216;2024-03-08T08:21:31;101980.43;;;24.62;39.42
73205;BME280;61413;-27.702;153.216;2024-03-08T08:23:58;101984.47;;;24.46;39.54
73205;BME280;61413;-27.702;153.216;2024-03-08T08:26:25;101984.90;;;24.51;39.61
73205;BME280;61413;-27.702;153.216;2024-03-08T08:28:52;101983.88;;;24.51;39.41
73205;BME280;61413;-27.702;153.216;2024-03-08T08:31:19;101985.99;;;24.37;39.55
73205;BME280;61413;-27.702;153.216;2024-03-08T08:33:45;101985.92;;;24.60;39.47
73205;BME280;61413;-27.702;153.216;2024-03-08T08:36:13;101991.52;;;24.37;39.37
73205;BME280;61413;-27.702;153.216;2024-03-08T08:38:39;101991.74;;;24.44;39.31
73205;BME280;61413;-27.702;153.216;2024-03-08T08:41:06;101989.95;;;24.43;39.20
73205;BME280;61413;-27.702;153.216;2024-03-08T08:43:33;101994.32;;;24.66;39.11
73205;BME280;61413;-27.702;153.216;2024-03-08T08:46:00;101996.95;;;24.37;38.91
73205;BME280;61413;-27.702;153.216;2024-03-08T08:48:27;101999.55;;;24.74;38.74
73205;BME280;61413;-27.702;153.216;2024-03-08T08:50:54;101997.05;;;24.45;38.56
73205;BME280;61413;-27.702;153.216;2024-03-08T08:53:21;102001.82;;;24.54;38.52
73205;BME280;61413;-27.702;153.216;2024-03-08T08:55:48;102006.36;;;24.53;38.62
73205;BME280;61413;-27.702;153.216;2024-03-08T08:58:15;102003.48;;;24.47;38.56
73205;BME280;61413;-27.702;153.216;2024-03-08T09:00:42;102011.21;;;24.68;38.57
73205;BME280;61413;-27.702;153.216;2024-03-08T09:03:09;102026.70;;;24.65;38.46
73205;BME280;61413;-27.702;153.216;2024-03-08T09:05:36;102019.74;;;24.70;38.54
73205;BME280;61413;-27.702;153.216;2024-03-08T09:08:03;102028.03;;;24.37;38.62
73205;BME280;61413;-27.702;153.216;2024-03-08T09:10:30;102030.42;;;24.51;38.81
73205;BME280;61413;-27.702;153.216;2024-03-08T09:12:57;102034.92;;;24.58;38.90
73205;BME280;61413;-27.702;153.216;2024-03-08T09:15:24;102038.49;;;24.05;39.07
73205;BME280;61413;-27.702;153.216;2024-03-08T09:17:51;102038.89;;;24.17;39.24
73205;BME280;61413;-27.702;153.216;2024-03-08T09:20:17;102039.78;;;24.09;39.42
73205;BME280;61413;-27.702;153.216;2024-03-08T09:22:46;102043.82;;;24.25;39.51
73205;BME280;61413;-27.702;153.216;2024-03-08T09:25:09;102048.48;;;23.86;39.68
73205;BME280;61413;-27.702;153.216;2024-03-08T09:27:37;102052.28;;;24.06;39.73
73205;BME280;61413;-27.702;153.216;2024-03-08T09:30:04;102050.94;;;23.87;39.78
73205;BME280;61413;-27.702;153.216;2024-03-08T09:32:30;102051.57;;;23.97;40.13
73205;BME280;61413;-27.702;153.216;2024-03-08T09:34:58;102048.18;;;23.56;40.32
73205;BME280;61413;-27.702;153.216;2024-03-08T09:37:24;102046.45;;;23.90;40.29
73205;BME280;61413;-27.702;153.216;2024-03-08T09:39:51;102047.61;;;24.10;40.13
73205;BME280;61413;-27.702;153.216;2024-03-08T09:42:18;102057.74;;;24.13;39.80
73205;BME280;61413;-27.702;153.216;2024-03-08T09:44:47;102061.78;;;24.04;39.54
73205;BME280;61413;-27.702;153.216;2024-03-08T09:47:14;102059.84;;;23.99;39.09
73205;BME280;61413;-27.702;153.216;2024-03-08T09:49:41;102071.72;;;24.00;38.83
73205;BME280;61413;-27.702;153.216;2024-03-08T09:52:08;102076.82;;;24.26;38.99
73205;BME280;61413;-27.702;153.216;2024-03-08T09:54:35;102082.37;;;23.89;39.19
73205;BME280;61413;-27.702;153.216;2024-03-08T09:57:04;102092.77;;;23.76;39.38
73205;BME280;61413;-27.702;153.216;2024-03-08T10:00:28;102097.00;;;23.89;39.64
73205;BME280;61413;-27.702;153.216;2024-03-08T10:03:00;102090.29;;;23.69;39.81
73205;BME280;61413;-27.702;153.216;2024-03-08T10:05:28;102094.03;;;23.92;40.02
73205;BME280;61413;-27.702;153.216;2024-03-08T10:07:51;102095.88;;;24.39;40.36
73205;BME280;61413;-27.702;153.216;2024-03-08T10:10:18;102091.11;;;24.60;40.56
73205;BME280;61413;-27.702;153.216;2024-03-08T10:15:03;102097.24;;;24.65;40.79
73205;BME280;61413;-27.702;153.216;2024-03-08T10:17:29;102098.44;;;24.69;40.70
73205;BME280;61413;-27.702;153.216;2024-03-08T10:19:56;102103.44;;;24.59;40.65
73205;BME280;61413;-27.702;153.216;2024-03-08T10:22:22;102106.44;;;24.65;40.58
73205;BME280;61413;-27.702;153.216;2024-03-08T10:24:49;102106.28;;;24.67;40.53
73205;BME280;61413;-27.702;153.216;2024-03-08T10:27:18;102104.13;;;24.54;40.55
73205;BME280;61413;-27.702;153.216;2024-03-08T10:29:41;102110.28;;;24.61;40.52
73205;BME280;61413;-27.702;153.216;2024-03-08T10:32:09;102112.12;;;24.31;40.58
73205;BME280;61413;-27.702;153.216;2024-03-08T10:34:35;102109.50;;;24.47;40.70
73205;BME280;61413;-27.702;153.216;2024-03-08T10:37:04;102110.26;;;24.21;40.79
73205;BME280;61413;-27.702;153.216;2024-03-08T10:39:31;102109.39;;;24.21;40.84
73205;BME280;61413;-27.702;153.216;2024-03-08T10:41:58;102106.49;;;24.29;40.93
73205;BME280;61413;-27.702;153.216;2024-03-08T10:44:32;102109.38;;;24.32;40.96
73205;BME280;61413;-27.702;153.216;2024-03-08T10:48:14;102114.51;;;24.08;41.10
73205;BME280;61413;-27.702;153.216;2024-03-08T10:50:31;102112.89;;;23.95;41.22
73205;BME280;61413;-27.702;153.216;2024-03-08T10:52:59;102120.09;;;24.20;41.25
73205;BME280;61413;-27.702;153.216;2024-03-08T10:55:27;102118.03;;;24.07;41.29
73205;BME280;61413;-27.702;153.216;2024-03-08T10:58:44;102122.97;;;24.25;41.30
73205;BME280;61413;-27.702;153.216;2024-03-08T11:01:12;102118.08;;;24.10;41.19
73205;BME280;61413;-27.702;153.216;2024-03-08T11:03:54;102111.26;;;24.18;40.94
73205;BME280;61413;-27.702;153.216;2024-03-08T11:06:05;102114.49;;;24.18;40.72
73205;BME280;61413;-27.702;153.216;2024-03-08T11:08:33;102118.87;;;24.17;40.52
73205;BME280;61413;-27.702;153.216;2024-03-08T11:11:00;102120.61;;;24.56;40.00
73205;BME280;61413;-27.702;153.216;2024-03-08T11:13:36;102121.59;;;24.42;39.84
73205;BME280;61413;-27.702;153.216;2024-03-08T11:15:56;102127.11;;;24.48;39.68
73205;BME280;61413;-27.702;153.216;2024-03-08T11:18:23;102127.72;;;24.32;39.64
73205;BME280;61413;-27.702;153.216;2024-03-08T11:20:49;102128.77;;;24.19;39.62
73205;BME280;61413;-27.702;153.216;2024-03-08T11:23:24;102130.32;;;24.26;39.58
73205;BME280;61413;-27.702;153.216;2024-03-08T11:25:43;102132.16;;;24.25;39.58
73205;BME280;61413;-27.702;153.216;2024-03-08T11:28:12;102125.41;;;24.25;39.63
73205;BME280;61413;-27.702;153.216;2024-03-08T11:30:36;102124.61;;;24.29;39.61
73205;BME280;61413;-27.702;153.216;2024-03-08T11:33:03;102129.92;;;24.05;39.67
73205;BME280;61413;-27.702;153.216;2024-03-08T11:35:30;102135.29;;;24.07;39.69
73205;BME280;61413;-27.702;153.216;2024-03-08T11:37:59;102136.70;;;23.87;39.75
73205;BME280;61413;-27.702;153.216;2024-03-08T11:40:22;102142.99;;;23.94;39.78
73205;BME280;61413;-27.702;153.216;2024-03-08T11:42:50;102141.62;;;23.94;39.76
73205;BME280;61413;-27.702;153.216;2024-03-08T11:45:17;102138.57;;;23.86;39.76
73205;BME280;61413;-27.702;153.216;2024-03-08T11:47:44;102138.32;;;23.75;39.76
73205;BME280;61413;-27.702;153.216;2024-03-08T11:50:13;102131.45;;;23.81;39.74
73205;BME280;61413;-27.702;153.216;2024-03-08T11:52:36;102127.63;;;23.84;39.72
73205;BME280;61413;-27.702;153.216;2024-03-08T11:55:03;102127.16;;;23.67;39.72
73205;BME280;61413;-27.702;153.216;2024-03-08T11:57:29;102125.21;;;23.52;39.77
73205;BME280;61413;-27.702;153.216;2024-03-08T11:59:57;102122.63;;;23.77;39.81
73205;BME280;61413;-27.702;153.216;2024-03-08T12:02:24;102122.72;;;23.69;39.86
73205;BME280;61413;-27.702;153.216;2024-03-08T12:04:57;102119.39;;;23.46;39.90
73205;BME280;61413;-27.702;153.216;2024-03-08T12:07:16;102116.61;;;23.20;39.93
73205;BME280;61413;-27.702;153.216;2024-03-08T12:09:42;102112.56;;;23.52;40.01
73205;BME280;61413;-27.702;153.216;2024-03-08T12:12:09;102110.03;;;23.44;40.05
73205;BME280;61413;-27.702;153.216;2024-03-08T12:14:36;102109.02;;;23.33;40.11
73205;BME280;61413;-27.702;153.216;2024-03-08T12:17:02;102106.33;;;23.50;40.10
73205;BME280;61413;-27.702;153.216;2024-03-08T12:19:29;102101.08;;;23.20;40.10
73205;BME280;61413;-27.702;153.216;2024-03-08T12:21:57;102095.87;;;23.30;40.17
73205;BME280;61413;-27.702;153.216;2024-03-08T12:24:24;102090.61;;;23.43;40.12
73205;BME280;61413;-27.702;153.216;2024-03-08T12:26:50;102088.08;;;23.44;40.03
73205;BME280;61413;-27.702;153.216;2024-03-08T12:29:19;102085.37;;;23.30;40.06
73205;BME280;61413;-27.702;153.216;2024-03-08T12:31:45;102082.71;;;23.34;40.09
73205;BME280;61413;-27.702;153.216;2024-03-08T12:34:12;102079.43;;;22.96;40.18
73205;BME280;61413;-27.702;153.216;2024-03-08T12:36:39;102074.29;;;23.17;40.10
73205;BME280;61413;-27.702;153.216;2024-03-08T12:39:07;102072.70;;;23.00;40.06
73205;BME280;61413;-27.702;153.216;2024-03-08T12:41:38;102071.53;;;22.86;40.12